Normanna, TX (78142)

2:33 AM CDT on September 01, 2014 (GMT -0500)
Beeville | Change Station
CLOSE
Current Station
Airport
Location: Beeville,
Elevation: 269 ft
Nearby Weather Stations

Elev 269 ft 28.37 °N, 97.80 °W | Updated 18 minutes ago

Clear
Clear
78 °F
Feels Like 78 °F
N
4
Wind Variable Wind from ESE

Today
High -- | Low -- °F
--% Chance of Precip.
Yesterday
High -- | Low -- °F
Precip. -- in
7:09 AM 7:52 PM
Waxing Crescent, 38% visible
Pressure 29.93 in
Visibility 7.0 miles
Clouds Clear
Dew Point 78 °F
Humidity 100%
Rainfall 0.00 in
Snow Depth Not available.
UV 0 out of 12
Pollen 5.70 out of 12
Air Quality Not available.
Flu Activity Not available.
METAR KBEA 010715Z AUTO 11003KT 7SM CLR 26/26 A2993 RMK AO2 T02550255

More Conditions Fewer Conditions

Pressure 29.93 in
Visibility 7.0 miles
Clouds Clear
Dew Point 78 °F
Humidity 100%
Rainfall 0.00 in
Snow Depth Not available.
UV 0 out of 12
Pollen 5.70 out of 12
Air Quality Not available.
Flu Activity Not available.
METAR KBEA 010715Z AUTO 11003KT 7SM CLR 26/26 A2993 RMK AO2 T02550255

More Conditions Fewer Conditions

10-Day Weather Forecast

Almanac

Astronomy

Sep. 01, 2014 Rise Set
Actual Time 7:09 AM CDT 7:52 PM CDT
Civil Twilight 6:45 AM CDT 8:16 PM CDT
Nautical Twilight 6:17 AM CDT 8:44 PM CDT
Astronomical Twilight 5:48 AM CDT 9:13 PM CDT
Moon 1:23 PM CDT No Moon Set
Length of Visible Light 13h 30m
Length of Day
12h 43m
Tomorrow will be 1m 38s shorter.
Waxing Crescent, 38% of the Moon is Illuminated
Today
Waxing Crescent
Sep 2
First Quarter
Sep 8
Full
Sep 15
Last Quarter
Sep 24
New

Today's Extremes

State Highs State Lows

Community

WunderPhotos

Upload Photos

1,749,154 photos uploaded!

Nearby

Snow Depth

Station Depth Elevation
No new snow has been reported.

Earthquake Activity

City Distance Mag. Time & Date
No recent earthquake activity has been reported nearby.
Minimum magnitude displayed is 2.5.

Coastal Water Temperatures

Place Temperature
No Stations Reporting

Nearby Weather Stations